• Join FlightAware (Why Join?)
  • Login
  • US Flag 
08:07PM EDT


 

Airport Tracker/Info


-or-


 

Live Flight TrackerFlight Track Log ✈ SWA378 ✈ 03-May-2013 ✈ KORF - KBWI

Flight Track Log - Related Links

Times and Time Zones

All times are in EDT time to prevent confusion due to time zone crossing. See the SWA378 flight status page for this flight to view local times or setup timezone preferences in your user account.

Time Position Orientation Groundspeed Altitude Reporting Facility
EDT Latitude Longitude Course Direction KTS MPH feet Rate Location/Type
08:20PM 36.9181 -76.1789 37° Northeast 145 167 1,700  Level Washington Center
08:20PM 36.9389 -76.1869 343° North 220 253 3,400 3,060 Climbing Washington Center
08:21PM 36.9533 -76.2183 300° West 232 267 4,800 3,360 Climbing Washington Center
08:22PM 36.9906 -76.3044 298° West 257 296 8,500 3,780 Climbing Washington Center
08:23PM 37.0336 -76.4011 299° West 291 335 12,300 3,600 Climbing Washington Center
08:24PM 37.0789 -76.5133 297° West 331 381 15,700 1,860 Climbing Washington Center
08:25PM 37.1239 -76.6261 297° West 355 409 16,100 180 Climbing Washington Center
08:26PM 37.1708 -76.7361 298° West 360 414 16,100  Level Washington Center
08:27PM 37.2156 -76.8464 297° West 360 414 16,100  Level Washington Center
08:28PM 37.2622 -76.9592 297° West 365 420 16,100  Level Washington Center
08:29PM 37.3050 -77.0592 298° West 359 413 16,100  Level Washington Center
08:30PM 37.3683 -77.1675 306° West 359 413 16,100  Level Washington Center
08:31PM 37.4422 -77.2503 318° Northwest 354 407 16,100  Level Washington Center
08:32PM 37.5142 -77.3331 318° Northwest 349 402 16,100 -60 Level Washington Center
08:33PM 37.5900 -77.4133 320° Northwest 349 402 16,000  Descending Washington Center
08:34PM 37.6772 -77.4442 344° North 334 384 16,100  Climbing Washington Center
08:35PM 37.7711 -77.4386 North 323 372 16,100  Level Washington Center
08:36PM 37.8672 -77.4331 North 329 379 16,100  Level Washington Center
08:37PM 37.9611 -77.4275 North 334 384 16,100  Level Washington Center
08:38PM 38.0408 -77.4003 15° North 328 377 16,100  Level Washington Center
08:39PM 38.1208 -77.3389 31° Northeast 328 377 16,100  Level Washington Center
08:40PM 38.2011 -77.2775 31° Northeast 328 377 16,100  Level Washington Center
08:41PM 38.2811 -77.2158 31° Northeast 328 377 16,100 -360 Level Washington Center
08:42PM 38.3611 -77.1539 31° Northeast 333 383 15,400 -720 Descending Washington Center
08:43PM 38.4331 -77.0758 40° Northeast 333 383 14,700 -1,440 Descending Washington Center
08:44PM 38.4964 -77.0003 43° Northeast 328 377 12,500 -1,380 Descending Washington Center
08:45PM 38.5619 -76.9219 43° Northeast 317 365 12,000 -960 Descending Washington Center
08:46PM 38.6233 -76.8433 45° Northeast 307 353 10,600 -1,320 Descending Washington Center
08:47PM 38.6825 -76.7697 44° Northeast 300 345 9,500 -1,140 Descending Washington Center
08:49PM 38.7667 -76.6167 55° Northeast 266 306 7,600 -1,260 Descending Potomac TRACON
08:50PM 38.8000 -76.5333 63° Northeast 265 305 6,100 -1,260 Descending Potomac TRACON
08:51PM 38.8833 -76.5500 351° North 277 319 5,100 -600 Descending Potomac TRACON
08:52PM 38.9500 -76.5833 339° North 271 312 5,000 -60 Descending Potomac TRACON
08:53PM 39.0000 -76.6500 314° West 284 327 5,000  Level Potomac TRACON
08:54PM 39.0333 -76.7333 297° West 229 264 5,000 -420 Level Potomac TRACON
08:55PM 39.0667 -76.7833 311° West 207 238 4,200 -840 Descending Potomac TRACON
08:56PM 39.0833 -76.8500 288° West 193 222 3,400 -600 Descending Potomac TRACON
08:57PM 39.1000 -76.9167 288° West 193 222 3,000 -240 Descending Potomac TRACON
08:58PM 39.1333 -76.9667 311° West 181 208 3,000  Level Potomac TRACON
08:59PM 39.1667 -76.9667 360° North 151 174 3,000  Level Potomac TRACON
09:00PM 39.1833 -76.9167 67° East 142 163 3,000 -120 Level Potomac TRACON
09:01PM 39.1833 -76.8667 90° East 142 163 2,800 -480 Descending Potomac TRACON
09:02PM 39.1833 -76.8167 90° East 147 169 2,100 -840 Descending Potomac TRACON
09:03PM 39.1833 -76.7667 90° East 124 143 1,200 -720 Descending Potomac TRACON
09:04PM 39.1833 -76.7167 90° East 121 139 700 -600 Descending Potomac TRACON